Time;durP1;ratioP1;P1;durP2;ratioP2;P2;SDS_P1;SDS_P2;PMS_P1;PMS_P2;Temp;Humidity;BMP_temperature;BMP_pressure;BME280_temperature;BME280_humidity;BME280_pressure;Samples;Min_cycle;Max_cycle;Signal;HPM_P1;HPM_P2
2022/12/31 00:00:40;;;;;;;35.33;22.10;;;;;;;-144.22;100.00;60274.75;6272993;28;20304;-67
2022/12/31 00:03:43;;;;;;;42.00;23.33;;;;;;;-144.22;100.00;60274.75;6292022;28;20624;-68
2022/12/31 00:06:46;;;;;;;39.83;22.03;;;;;;;-144.22;100.00;60274.75;6291557;28;20222;-67
2022/12/31 00:09:48;;;;;;;37.17;20.60;;;;;;;-144.22;100.00;60274.75;6290151;28;20225;-67
2022/12/31 00:12:50;;;;;;;44.43;23.77;;;;;;;-144.22;100.00;60274.75;6286578;28;20227;-67
2022/12/31 00:15:52;;;;;;;38.73;22.50;;;;;;;-144.22;100.00;60274.75;6271817;28;20332;-67
2022/12/31 00:19:00;;;;;;;38.57;23.00;;;;;;;-144.22;100.00;60274.75;6291216;28;20225;-67
2022/12/31 00:22:02;;;;;;;39.53;22.13;;;;;;;-144.22;100.00;60274.75;6289744;28;20604;-67
2022/12/31 00:25:05;;;;;;;35.80;20.90;;;;;;;-144.22;100.00;60274.75;6289888;28;20233;-67
2022/12/31 00:28:07;;;;;;;42.17;23.00;;;;;;;-144.22;100.00;60274.75;6287558;28;20579;-67
2022/12/31 00:31:18;;;;;;;44.67;24.97;;;;;;;-144.22;100.00;60274.75;6287950;28;20239;-67
2022/12/31 00:34:20;;;;;;;42.17;23.97;;;;;;;-144.22;100.00;60274.75;6291132;28;20242;-67
2022/12/31 00:37:22;;;;;;;35.37;20.43;;;;;;;-144.22;100.00;60274.75;6290307;28;20627;-67
2022/12/31 00:40:24;;;;;;;33.67;18.93;;;;;;;-144.22;100.00;60274.75;6290829;28;20706;-67
2022/12/31 00:43:26;;;;;;;34.07;20.83;;;;;;;-144.22;100.00;60274.75;6270077;28;20232;-67
2022/12/31 00:46:30;;;;;;;35.10;20.13;;;;;;;-144.22;100.00;60274.75;6269151;28;20615;-67
2022/12/31 00:49:32;;;;;;;29.20;18.27;;;;;;;-144.22;100.00;60274.75;6290482;28;20226;-67
2022/12/31 00:52:34;;;;;;;30.53;19.17;;;;;;;-144.22;100.00;60274.75;6288920;28;20234;-68
2022/12/31 00:55:36;;;;;;;30.27;18.67;;;;;;;-144.22;100.00;60274.75;6289096;28;20717;-67
2022/12/31 00:58:39;;;;;;;32.17;18.17;;;;;;;-144.22;100.00;60274.75;6255335;28;20222;-67
2022/12/31 01:01:42;;;;;;;27.30;16.27;;;;;;;-144.22;100.00;60274.75;6296141;28;20279;-67
2022/12/31 01:04:44;;;;;;;27.40;16.40;;;;;;;-144.22;100.00;60274.75;6295845;28;20507;-67
2022/12/31 01:07:46;;;;;;;28.17;18.03;;;;;;;-144.22;100.00;60274.75;6296998;28;20222;-67
2022/12/31 01:14:16;;;;;;;30.47;18.63;;;;;;;-144.22;100.00;60274.75;6296912;28;20226;-68
2022/12/31 01:17:18;;;;;;;28.57;19.23;;;;;;;-144.22;100.00;60274.75;6278112;28;20293;-67
2022/12/31 01:20:20;;;;;;;39.07;22.83;;;;;;;-144.22;100.00;60274.75;6290004;28;20232;-68
2022/12/31 01:23:22;;;;;;;36.90;21.10;;;;;;;-144.22;100.00;60274.75;6276237;28;20239;-67
2022/12/31 01:26:26;;;;;;;29.33;18.53;;;;;;;-144.22;100.00;60274.75;6292782;28;20265;-68
2022/12/31 01:29:28;;;;;;;33.03;19.90;;;;;;;-144.22;100.00;60274.75;6274035;28;20219;-67
2022/12/31 01:32:30;;;;;;;32.27;19.00;;;;;;;-144.22;100.00;60274.75;6294221;28;20313;-67
2022/12/31 01:35:35;;;;;;;29.70;17.70;;;;;;;-144.22;100.00;60274.75;6293801;28;20712;-67
2022/12/31 01:38:38;;;;;;;37.67;21.47;;;;;;;-144.22;100.00;60274.75;6290358;28;20758;-67
2022/12/31 01:41:43;;;;;;;36.13;20.57;;;;;;;-144.22;100.00;60274.75;6294748;28;20313;-67
2022/12/31 01:44:51;;;;;;;30.53;18.23;;;;;;;-144.22;100.00;60274.75;6293285;28;20574;-67
2022/12/31 01:47:58;;;;;;;35.27;20.47;;;;;;;-144.22;100.00;60274.75;6293994;28;20258;-68
2022/12/31 01:51:01;;;;;;;35.17;21.13;;;;;;;-144.22;100.00;60274.75;6298340;28;20235;-67
2022/12/31 01:54:07;;;;;;;30.93;19.63;;;;;;;-144.22;100.00;60274.75;6294353;28;20239;-68
2022/12/31 01:57:10;;;;;;;36.97;20.40;;;;;;;-144.22;100.00;60274.75;6285092;28;20693;-67
2022/12/31 02:00:13;;;;;;;35.87;20.40;;;;;;;-144.22;100.00;60274.75;6293801;28;20215;-67
2022/12/31 02:03:20;;;;;;;39.70;21.27;;;;;;;-144.22;100.00;60274.75;6276710;28;20212;-67
2022/12/31 02:06:39;;;;;;;32.67;19.50;;;;;;;-144.22;100.00;60274.75;6279696;28;20602;-67
2022/12/31 02:09:41;;;;;;;29.90;18.30;;;;;;;-144.22;100.00;60274.75;6298420;28;20638;-67
2022/12/31 02:12:44;;;;;;;35.37;21.47;;;;;;;-144.22;100.00;60274.75;6293519;28;20277;-67
2022/12/31 02:16:11;;;;;;;29.90;18.30;;;;;;;-144.22;100.00;60274.75;6294949;28;20234;-67
2022/12/31 02:19:38;;;;;;;29.47;18.93;;;;;;;-144.22;100.00;60274.75;6288703;28;20239;-67
2022/12/31 02:23:21;;;;;;;32.07;19.40;;;;;;;-144.22;100.00;60274.75;6274798;28;20589;-67
2022/12/31 02:26:48;;;;;;;31.73;19.47;;;;;;;-144.22;100.00;60274.75;6258842;28;20232;-67
2022/12/31 02:30:07;;;;;;;35.27;21.23;;;;;;;-144.22;100.00;60274.75;6294973;28;20218;-67
2022/12/31 02:33:19;;;;;;;30.90;18.43;;;;;;;-144.22;100.00;60274.75;6293274;28;20525;-67
2022/12/31 02:36:26;;;;;;;29.27;19.13;;;;;;;-144.22;100.00;60274.75;6267446;28;20750;-67
2022/12/31 02:39:30;;;;;;;30.73;18.73;;;;;;;-144.22;100.00;60274.75;6292027;28;20246;-67
2022/12/31 02:42:32;;;;;;;26.37;17.13;;;;;;;-144.22;100.00;60274.75;6275445;28;20281;-67
2022/12/31 02:45:41;;;;;;;30.30;18.90;;;;;;;-144.22;100.00;60274.75;6294163;28;20339;-67
2022/12/31 02:48:51;;;;;;;31.37;19.63;;;;;;;-144.22;100.00;60274.75;6291843;28;20604;-68
2022/12/31 02:52:04;;;;;;;31.40;18.70;;;;;;;-144.22;100.00;60274.75;6276576;28;20264;-67
2022/12/31 02:55:24;;;;;;;34.70;19.93;;;;;;;-144.22;100.00;60274.75;6292235;28;20694;-68
2022/12/31 03:02:13;;;;;;;28.10;17.53;;;;;;;-144.22;100.00;60274.75;6292859;28;20236;-67
2022/12/31 03:05:20;;;;;;;28.57;18.77;;;;;;;-144.22;100.00;60274.75;6292683;28;20227;-67
2022/12/31 03:08:25;;;;;;;29.87;18.03;;;;;;;-144.22;100.00;60274.75;6272751;28;20227;-67
2022/12/31 03:14:49;;;;;;;30.93;18.43;;;;;;;-144.22;100.00;60274.75;6276346;28;20252;-68
2022/12/31 03:18:07;;;;;;;28.07;18.53;;;;;;;-144.22;100.00;60274.75;6290574;28;20318;-67
2022/12/31 03:27:53;;;;;;;32.70;18.93;;;;;;;-144.22;100.00;60274.75;6287295;28;20269;-68
2022/12/31 03:30:58;;;;;;;29.27;19.07;;;;;;;-144.22;100.00;60274.75;6298762;28;20223;-67
2022/12/31 03:34:00;;;;;;;29.73;18.90;;;;;;;-144.22;100.00;60274.75;6291775;28;20268;-67
2022/12/31 03:37:02;;;;;;;30.97;19.43;;;;;;;-144.22;100.00;60274.75;6289759;28;20230;-67
2022/12/31 03:40:06;;;;;;;23.60;15.57;;;;;;;-144.22;100.00;60274.75;6290424;28;20744;-67
2022/12/31 03:43:09;;;;;;;21.30;13.87;;;;;;;-144.22;100.00;60274.75;6274010;28;20325;-67
2022/12/31 03:46:11;;;;;;;30.07;18.53;;;;;;;-144.22;100.00;60274.75;6297346;28;20232;-67
2022/12/31 03:49:13;;;;;;;24.77;16.70;;;;;;;-144.22;100.00;60274.75;6293949;28;20301;-67
2022/12/31 03:52:15;;;;;;;25.83;16.60;;;;;;;-144.22;100.00;60274.75;6273880;28;20940;-67
2022/12/31 03:55:18;;;;;;;24.50;16.23;;;;;;;-144.22;100.00;60274.75;6293874;28;20370;-67
2022/12/31 03:58:21;;;;;;;24.87;16.67;;;;;;;-144.22;100.00;60274.75;6290187;28;20742;-67
2022/12/31 04:01:24;;;;;;;25.57;16.93;;;;;;;-144.22;100.00;60274.75;6293067;28;20704;-67
2022/12/31 04:04:26;;;;;;;26.63;16.63;;;;;;;-144.22;100.00;60274.75;6276782;28;20227;-67
2022/12/31 04:07:28;;;;;;;24.20;14.90;;;;;;;-144.22;100.00;60274.75;6273351;28;20314;-67
2022/12/31 04:10:30;;;;;;;27.20;17.33;;;;;;;-144.22;100.00;60274.75;6290466;28;20259;-67
2022/12/31 04:13:32;;;;;;;31.03;18.47;;;;;;;-144.22;100.00;60274.75;6276765;28;20235;-67
2022/12/31 04:16:34;;;;;;;30.97;18.77;;;;;;;-144.22;100.00;60274.75;6274524;28;20698;-68
2022/12/31 04:19:37;;;;;;;28.80;16.97;;;;;;;-144.22;100.00;60274.75;6291519;28;20239;-67
2022/12/31 04:22:39;;;;;;;24.93;16.33;;;;;;;-144.22;100.00;60274.75;6292066;28;20604;-67
2022/12/31 04:25:41;;;;;;;27.27;17.10;;;;;;;-144.22;100.00;60274.75;6273233;28;20309;-67
2022/12/31 04:28:44;;;;;;;30.40;18.53;;;;;;;-144.22;100.00;60274.75;6292854;28;20263;-67
2022/12/31 04:31:47;;;;;;;25.60;16.80;;;;;;;-144.22;100.00;60274.75;6291308;28;20232;-67
2022/12/31 04:34:49;;;;;;;24.73;16.57;;;;;;;-144.22;100.00;60274.75;6293165;28;20770;-67
2022/12/31 04:37:51;;;;;;;26.03;14.37;;;;;;;-144.22;100.00;60274.75;6295296;28;20791;-67
2022/12/31 04:44:14;;;;;;;25.53;16.23;;;;;;;-144.22;100.00;60274.75;6294684;28;20316;-67
2022/12/31 04:47:17;;;;;;;26.33;16.47;;;;;;;-144.22;100.00;60274.75;6293757;28;20226;-67
2022/12/31 04:50:24;;;;;;;19.90;14.30;;;;;;;-144.22;100.00;60274.75;6279154;28;20217;-67
2022/12/31 04:53:27;;;;;;;21.73;15.43;;;;;;;-144.22;100.00;60274.75;6294309;28;20707;-67
2022/12/31 04:56:29;;;;;;;22.07;15.10;;;;;;;-144.22;100.00;60274.75;6295560;28;20302;-67
2022/12/31 04:59:31;;;;;;;21.23;14.87;;;;;;;-144.22;100.00;60274.75;6292975;28;20650;-67
2022/12/31 05:02:33;;;;;;;23.57;15.77;;;;;;;-144.22;100.00;60274.75;6294689;28;20277;-67
2022/12/31 05:05:41;;;;;;;21.37;13.77;;;;;;;-144.22;100.00;60274.75;6296555;28;20696;-67
2022/12/31 05:08:43;;;;;;;24.30;15.90;;;;;;;-144.22;100.00;60274.75;6277783;28;20737;-67
2022/12/31 05:11:45;;;;;;;27.10;16.07;;;;;;;-144.22;100.00;60274.75;6277122;28;20319;-68
2022/12/31 05:14:47;;;;;;;27.30;16.77;;;;;;;-144.22;100.00;60274.75;6293000;28;20595;-67
2022/12/31 05:17:49;;;;;;;26.17;16.70;;;;;;;-144.22;100.00;60274.75;6296651;28;20235;-68
2022/12/31 05:20:52;;;;;;;23.73;15.30;;;;;;;-144.22;100.00;60274.75;6292617;28;20267;-67
2022/12/31 05:23:54;;;;;;;20.50;13.43;;;;;;;-144.22;100.00;60274.75;6294888;28;20238;-68
2022/12/31 05:26:56;;;;;;;22.20;14.80;;;;;;;-144.22;100.00;60274.75;6294298;28;20240;-67
2022/12/31 05:29:58;;;;;;;20.17;13.30;;;;;;;-144.22;100.00;60274.75;6295235;28;20230;-67
2022/12/31 05:33:01;;;;;;;19.50;13.53;;;;;;;-144.22;100.00;60274.75;6278143;28;20238;-69
2022/12/31 05:36:03;;;;;;;20.23;13.17;;;;;;;-144.22;100.00;60274.75;6295478;28;20965;-67
2022/12/31 05:39:05;;;;;;;22.03;12.43;;;;;;;-144.22;100.00;60274.75;6274798;28;20264;-67
2022/12/31 05:42:07;;;;;;;18.50;12.63;;;;;;;-144.22;100.00;60274.75;6294403;28;20700;-67
2022/12/31 05:45:12;;;;;;;17.53;11.63;;;;;;;-144.22;100.00;60274.75;6275325;28;20212;-68
2022/12/31 05:48:14;;;;;;;18.20;10.50;;;;;;;-144.22;100.00;60274.75;6285306;28;20220;-68
2022/12/31 05:51:16;;;;;;;14.80;10.57;;;;;;;-144.22;100.00;60274.75;6294427;28;20247;-67
2022/12/31 05:54:18;;;;;;;14.00;9.90;;;;;;;-144.22;100.00;60274.75;6274063;28;20233;-67
2022/12/31 05:57:20;;;;;;;9.33;7.93;;;;;;;-144.22;100.00;60274.75;6292614;28;20593;-67
2022/12/31 06:00:22;;;;;;;9.67;7.00;;;;;;;-144.22;100.00;60274.75;6291543;28;20332;-67
2022/12/31 06:03:24;;;;;;;11.53;6.37;;;;;;;-144.22;100.00;60274.75;6295656;28;20236;-67
2022/12/31 06:06:26;;;;;;;7.90;5.60;;;;;;;-144.22;100.00;60274.75;6273481;28;20222;-67
2022/12/31 06:09:28;;;;;;;7.27;4.67;;;;;;;-144.22;100.00;60274.75;6271254;28;20711;-67
2022/12/31 06:12:31;;;;;;;5.63;4.50;;;;;;;-144.22;100.00;60274.75;6293393;28;20690;-67
2022/12/31 06:15:37;;;;;;;7.07;4.17;;;;;;;-144.22;100.00;60274.75;6295210;28;20237;-67
2022/12/31 06:18:39;;;;;;;3.90;3.20;;;;;;;-144.22;100.00;60274.75;6293389;28;20693;-67
2022/12/31 06:21:41;;;;;;;3.63;3.07;;;;;;;-144.22;100.00;60274.75;6279499;28;20691;-67
2022/12/31 06:24:43;;;;;;;3.23;2.90;;;;;;;-144.22;100.00;60274.75;6296223;28;20229;-67
2022/12/31 06:27:45;;;;;;;3.07;2.50;;;;;;;-144.22;100.00;60274.75;6276201;28;20740;-67
2022/12/31 06:30:48;;;;;;;2.97;2.67;;;;;;;-144.22;100.00;60274.75;6296306;28;20254;-67
2022/12/31 06:33:51;;;;;;;2.77;2.20;;;;;;;-144.22;100.00;60274.75;6286141;28;20321;-67
2022/12/31 06:36:54;;;;;;;2.53;2.03;;;;;;;-144.22;100.00;60274.75;6294068;28;20577;-67
2022/12/31 06:39:56;;;;;;;1.57;1.47;;;;;;;-144.22;100.00;60274.75;6261226;28;20247;-67
2022/12/31 06:42:58;;;;;;;2.53;1.63;;;;;;;-144.22;100.00;60274.75;6281766;28;20291;-67
2022/12/31 06:46:06;;;;;;;3.47;2.03;;;;;;;-144.22;100.00;60274.75;6293503;28;20698;-67
2022/12/31 06:49:08;;;;;;;2.07;1.77;;;;;;;-144.22;100.00;60274.75;6275999;28;20719;-67
2022/12/31 06:52:10;;;;;;;2.80;1.60;;;;;;;-144.22;100.00;60274.75;6295063;28;20237;-66
2022/12/31 06:55:13;;;;;;;2.07;1.47;;;;;;;-144.22;100.00;60274.75;6275345;28;20237;-67
2022/12/31 06:58:16;;;;;;;1.77;1.20;;;;;;;-144.22;100.00;60274.75;6297201;28;20716;-69
2022/12/31 07:01:40;;;;;;;2.60;2.00;;;;;;;-144.22;100.00;60274.75;6294535;28;20229;-67
2022/12/31 07:05:17;;;;;;;2.47;2.07;;;;;;;-144.22;100.00;60274.75;6293551;28;20253;-66
2022/12/31 07:08:34;;;;;;;6.33;3.27;;;;;;;-144.22;100.00;60274.75;6279380;28;20221;-67
2022/12/31 07:12:00;;;;;;;3.93;2.07;;;;;;;-144.22;100.00;60274.75;6293227;28;20830;-67
2022/12/31 07:15:26;;;;;;;2.63;1.87;;;;;;;-144.22;100.00;60274.75;6288882;28;20288;-67
2022/12/31 07:18:53;;;;;;;2.97;2.13;;;;;;;-144.22;100.00;60274.75;6265456;28;20317;-67
2022/12/31 07:21:57;;;;;;;3.40;2.27;;;;;;;-144.22;100.00;60274.75;6293691;28;20589;-67
2022/12/31 07:25:00;;;;;;;3.97;2.30;;;;;;;-144.22;100.00;60274.75;6284737;28;20231;-67
2022/12/31 07:28:20;;;;;;;5.30;3.30;;;;;;;-144.22;100.00;60274.75;6293251;28;20655;-68
2022/12/31 07:32:03;;;;;;;5.07;3.73;;;;;;;-144.22;100.00;60274.75;6277119;28;20780;-66
2022/12/31 07:35:36;;;;;;;15.83;10.23;;;;;;;-144.22;100.00;60274.75;6182458;28;20616;-67
2022/12/31 07:38:59;;;;;;;11.60;8.13;;;;;;;-144.22;100.00;60274.75;6165663;28;20312;-67
2022/12/31 07:42:31;;;;;;;50.20;15.20;;;;;;;-144.22;100.00;60274.75;6191354;28;20233;-67
2022/12/31 07:46:03;;;;;;;15.17;10.03;;;;;;;-144.22;100.00;60274.75;6193834;28;20963;-67
2022/12/31 07:49:12;;;;;;;15.77;9.20;;;;;;;-144.22;100.00;60274.75;6186297;28;20740;-68
2022/12/31 07:52:15;;;;;;;13.97;7.97;;;;;;;-144.22;100.00;60274.75;6190534;28;20267;-68
2022/12/31 07:55:17;;;;;;;8.60;6.00;;;;;;;-144.22;100.00;60274.75;6189174;28;20282;-67
2022/12/31 07:58:39;;;;;;;7.97;5.00;;;;;;;-144.22;100.00;60274.75;6190233;28;20658;-67
2022/12/31 08:01:53;;;;;;;5.63;3.77;;;;;;;-144.22;100.00;60274.75;6190304;28;20238;-67
2022/12/31 08:05:14;;;;;;;5.63;4.13;;;;;;;-144.22;100.00;60274.75;6190321;28;20611;-67
2022/12/31 08:08:40;;;;;;;8.47;4.17;;;;;;;-144.22;100.00;60274.75;6204446;28;20866;-67
2022/12/31 08:11:58;;;;;;;3.43;2.67;;;;;;;-144.22;100.00;60274.75;6288873;28;20725;-66
2022/12/31 08:15:00;;;;;;;3.57;2.20;;;;;;;-144.22;100.00;60274.75;6273401;28;20706;-67
2022/12/31 08:18:03;;;;;;;5.33;2.90;;;;;;;-144.22;100.00;60274.75;6290023;28;20350;-67
2022/12/31 08:21:30;;;;;;;5.13;2.10;;;;;;;-144.22;100.00;60274.75;6272062;28;20230;-67
2022/12/31 08:25:03;;;;;;;2.23;1.47;;;;;;;-144.22;100.00;60274.75;6291281;28;20727;-67
2022/12/31 08:28:36;;;;;;;1.90;1.40;;;;;;;-144.22;100.00;60274.75;6290985;28;20725;-67
2022/12/31 08:31:59;;;;;;;1.13;1.00;;;;;;;-144.22;100.00;60274.75;6291840;28;20368;-66
2022/12/31 08:35:18;;;;;;;2.30;1.50;;;;;;;-144.22;100.00;60274.75;6290803;28;20238;-66
2022/12/31 08:38:41;;;;;;;1.30;1.20;;;;;;;-144.22;100.00;60274.75;6269433;28;20235;-66
2022/12/31 08:41:46;;;;;;;3.67;2.50;;;;;;;-144.22;100.00;60274.75;6269485;28;20687;-67
2022/12/31 08:45:04;;;;;;;3.33;2.20;;;;;;;-144.22;100.00;60274.75;6289359;28;20315;-68
2022/12/31 08:48:23;;;;;;;2.37;1.73;;;;;;;-144.22;100.00;60274.75;6292166;28;20240;-67
2022/12/31 08:51:26;;;;;;;2.67;2.40;;;;;;;-144.22;100.00;60274.75;6267142;28;20233;-67
2022/12/31 08:54:29;;;;;;;2.43;2.10;;;;;;;-144.22;100.00;60274.75;6289484;28;20249;-67
2022/12/31 08:57:40;;;;;;;2.47;2.17;;;;;;;-144.22;100.00;60274.75;6270884;28;20697;-66
2022/12/31 09:00:47;;;;;;;2.47;2.00;;;;;;;-144.22;100.00;60274.75;6289561;28;20323;-67
2022/12/31 09:04:24;;;;;;;2.13;1.63;;;;;;;-144.22;100.00;60274.75;6271852;28;20729;-66
2022/12/31 09:07:38;;;;;;;2.63;2.40;;;;;;;-144.22;100.00;60274.75;6284876;28;20327;-67
2022/12/31 09:10:43;;;;;;;6.07;2.30;;;;;;;-144.22;100.00;60274.75;6278428;28;20574;-67
2022/12/31 09:14:31;;;;;;;2.60;2.20;;;;;;;-144.22;100.00;60274.75;6289115;28;20240;-67
2022/12/31 09:17:42;;;;;;;2.63;1.90;;;;;;;-144.22;100.00;60274.75;6294571;28;20584;-68
2022/12/31 09:20:45;;;;;;;3.43;2.50;;;;;;;-144.22;100.00;60274.75;6291715;28;20238;-67
2022/12/31 09:23:47;;;;;;;3.20;2.33;;;;;;;-144.22;100.00;60274.75;6281571;28;20687;-67
2022/12/31 09:26:56;;;;;;;3.27;2.30;;;;;;;-144.22;100.00;60274.75;6294924;28;20324;-67
2022/12/31 09:30:17;;;;;;;1.87;1.67;;;;;;;-144.22;100.00;60274.75;6261326;28;20813;-66
2022/12/31 09:33:41;;;;;;;1.90;1.50;;;;;;;-144.22;100.00;60274.75;6294437;28;20246;-67
2022/12/31 09:36:49;;;;;;;2.97;1.07;;;;;;;-144.22;100.00;60274.75;6299125;28;20231;-67
2022/12/31 09:39:56;;;;;;;1.13;0.80;;;;;;;-144.22;100.00;60274.75;6296624;28;20228;-67
2022/12/31 09:42:58;;;;;;;1.20;1.10;;;;;;;-144.22;100.00;60274.75;6293939;28;20273;-67
2022/12/31 09:46:24;;;;;;;1.30;1.20;;;;;;;-144.22;100.00;60274.75;6292552;28;20231;-67
2022/12/31 09:49:45;;;;;;;2.27;0.80;;;;;;;-144.22;100.00;60274.75;6282734;28;20236;-67
2022/12/31 09:53:22;;;;;;;0.93;0.90;;;;;;;-144.22;100.00;60274.75;6276011;28;20285;-67
2022/12/31 09:57:06;;;;;;;0.87;0.77;;;;;;;-144.22;100.00;60274.75;6194135;28;20239;-67
2022/12/31 10:00:33;;;;;;;3.87;2.60;;;;;;;-144.22;100.00;60274.75;6120558;29;20229;-67
2022/12/31 10:03:47;;;;;;;15.60;11.17;;;;;;;-144.22;100.00;60274.75;6121815;28;20354;-66
2022/12/31 10:07:01;;;;;;;21.30;14.37;;;;;;;-144.22;100.00;60274.75;6123179;29;20290;-66
2022/12/31 10:10:06;;;;;;;23.87;17.33;;;;;;;-144.22;100.00;60274.75;6122002;29;20234;-67
2022/12/31 10:13:23;;;;;;;32.83;23.37;;;;;;;-144.22;100.00;60274.75;6120830;29;20233;-67
2022/12/31 10:16:28;;;;;;;28.07;21.17;;;;;;;-144.22;100.00;60274.75;6121838;29;20239;-66
2022/12/31 10:19:48;;;;;;;29.20;21.37;;;;;;;-144.22;100.00;60274.75;6087947;29;21293;-67
2022/12/31 10:23:14;;;;;;;29.97;21.67;;;;;;;-144.22;100.00;60274.75;6120487;29;20235;-66
2022/12/31 10:26:23;;;;;;;26.07;19.77;;;;;;;-144.22;100.00;60274.75;6119936;29;20249;-68
2022/12/31 10:29:37;;;;;;;27.90;20.13;;;;;;;-144.22;100.00;60274.75;6129271;28;20246;-67
2022/12/31 10:33:10;;;;;;;29.47;22.40;;;;;;;-144.22;100.00;60274.75;6257233;28;20608;-66
2022/12/31 10:36:25;;;;;;;33.07;22.97;;;;;;;-144.22;100.00;60274.75;6292002;28;20697;-67
2022/12/31 10:39:48;;;;;;;29.60;20.90;;;;;;;-144.22;100.00;60274.75;6274954;28;20224;-67
2022/12/31 10:43:15;;;;;;;27.23;17.60;;;;;;;-144.22;100.00;60274.75;6275155;28;20233;-68
2022/12/31 10:46:54;;;;;;;16.17;10.70;;;;;;;-144.22;100.00;60274.75;6292163;28;20230;-67
2022/12/31 10:50:15;;;;;;;3.67;2.90;;;;;;;-144.22;100.00;60274.75;6272721;28;20360;-66
2022/12/31 10:53:35;;;;;;;7.00;5.10;;;;;;;-144.22;100.00;60274.75;6279599;28;20230;-67
2022/12/31 10:57:14;;;;;;;7.00;4.77;;;;;;;-3.57;100.00;97845.56;6274514;28;20379;-67
2022/12/31 11:00:21;;;;;;;5.90;2.27;;;;;;;7.50;100.00;98238.91;6286921;28;20242;-67
2022/12/31 11:03:53;;;;;;;2.00;1.77;;;;;;;7.58;100.00;98241.09;6292931;28;20750;-67
2022/12/31 11:07:26;;;;;;;4.67;3.30;;;;;;;7.72;100.00;98236.03;6274635;28;20591;-67
2022/12/31 11:10:55;;;;;;;2.23;2.00;;;;;;;7.72;100.00;98238.47;6273315;28;20701;-67
2022/12/31 11:14:27;;;;;;;4.60;2.10;;;;;;;-144.22;100.00;60274.75;6275269;28;20233;-66
2022/12/31 11:17:51;;;;;;;2.93;2.37;;;;;;;8.09;100.00;98219.53;6208641;28;20241;-67
2022/12/31 11:20:59;;;;;;;34.90;26.13;;;;;;;-144.22;100.00;60274.75;6291552;28;20647;-67
2022/12/31 11:24:34;;;;;;;34.90;24.97;;;;;;;8.05;100.00;98227.72;6292661;28;20310;-66
2022/12/31 11:28:08;;;;;;;33.47;24.73;;;;;;;7.64;100.00;98252.09;6292470;28;20310;-67
2022/12/31 11:31:26;;;;;;;34.23;26.77;;;;;;;7.53;100.00;98246.63;6295172;28;20248;-66
2022/12/31 11:35:11;;;;;;;30.27;24.83;;;;;;;7.56;100.00;98249.06;6293557;28;20284;-66
2022/12/31 11:38:16;;;;;;;32.07;25.23;;;;;;;-144.22;100.00;60274.75;6292006;28;20706;-66
2022/12/31 11:41:29;;;;;;;28.97;23.07;;;;;;;7.61;100.00;98239.13;6291929;28;20286;-67
2022/12/31 11:45:08;;;;;;;26.97;23.10;;;;;;;7.94;100.00;98217.03;6272230;28;20255;-66
2022/12/31 11:48:31;;;;;;;31.57;24.23;;;;;;;8.15;100.00;98207.81;6254783;28;20287;-67
2022/12/31 11:52:23;;;;;;;30.77;23.00;;;;;;;-144.22;100.00;60274.75;6273476;28;20304;-67
2022/12/31 11:55:46;;;;;;;29.93;23.73;;;;;;;8.35;100.00;98210.09;6273295;28;20230;-66
2022/12/31 11:58:54;;;;;;;27.17;22.90;;;;;;;8.78;100.00;98200.28;6273679;28;20226;-67
2022/12/31 12:02:17;;;;;;;25.67;20.23;;;;;;;8.84;100.00;98199.06;6290555;28;20712;-66
2022/12/31 12:05:22;;;;;;;22.10;18.83;;;;;;;8.86;100.00;98203.28;6289863;28;20233;-67
2022/12/31 12:08:28;;;;;;;23.10;19.40;;;;;;;8.87;100.00;98189.19;6286537;28;20231;-67
2022/12/31 12:11:34;;;;;;;22.43;19.37;;;;;;;8.83;100.00;98189.47;6280294;28;20233;-67
2022/12/31 12:14:38;;;;;;;23.30;19.63;;;;;;;8.81;100.00;98207.13;6290537;28;20237;-67
2022/12/31 12:17:41;;;;;;;22.80;19.63;;;;;;;8.81;100.00;98202.72;6288785;28;20323;-66
2022/12/31 12:20:47;;;;;;;21.83;18.43;;;;;;;8.87;100.00;98202.34;6282328;28;20825;-67
2022/12/31 12:24:02;;;;;;;22.03;18.37;;;;;;;8.88;100.00;98195.28;6273552;28;20437;-67
2022/12/31 12:27:20;;;;;;;21.47;17.83;;;;;;;8.92;100.00;98199.38;6262866;28;20234;-67
2022/12/31 12:30:26;;;;;;;21.43;17.70;;;;;;;8.99;100.00;98195.41;6266103;28;20238;-66
2022/12/31 12:33:40;;;;;;;18.83;15.80;;;;;;;9.08;100.00;98188.22;6267863;28;20222;-67
2022/12/31 12:36:46;;;;;;;18.37;15.10;;;;;;;9.17;100.00;98194.38;6280671;28;20236;-67
2022/12/31 12:40:02;;;;;;;18.97;15.63;;;;;;;9.17;100.00;60274.75;6266665;28;20308;-67
2022/12/31 12:43:05;;;;;;;17.30;15.27;;;;;;;9.42;100.00;79047.16;6244264;28;20290;-69
2022/12/31 12:46:31;;;;;;;21.57;18.57;;;;;;;9.43;100.00;79047.16;6262369;28;20662;-67
2022/12/31 12:49:41;;;;;;;26.27;20.60;;;;;;;9.31;100.00;78989.44;6268539;28;20786;-66
2022/12/31 12:52:59;;;;;;;21.40;18.90;;;;;;;9.24;100.00;103558.78;6264794;28;20243;-67
2022/12/31 12:56:21;;;;;;;22.37;18.70;;;;;;;-144.22;100.00;60274.75;6267671;28;20251;-66
2022/12/31 12:59:44;;;;;;;24.17;20.07;;;;;;;9.22;100.00;60274.75;6271152;28;20239;-67
2022/12/31 13:03:07;;;;;;;25.53;19.70;;;;;;;-144.22;100.00;60274.75;6283082;28;20223;-67
2022/12/31 13:06:21;;;;;;;24.00;19.03;;;;;;;-144.22;100.00;60274.75;6268697;28;20232;-66
2022/12/31 13:10:03;;;;;;;20.03;17.60;;;;;;;9.11;100.00;78970.69;6271395;28;20292;-67
2022/12/31 13:13:20;;;;;;;25.47;19.13;;;;;;;8.99;100.00;60274.75;6270722;28;20760;-67
2022/12/31 13:16:34;;;;;;;22.30;18.60;;;;;;;8.91;100.00;60274.75;6280131;28;20292;-67
2022/12/31 13:19:44;;;;;;;19.87;17.70;;;;;;;8.90;100.00;60274.75;6270262;28;20223;-67
2022/12/31 13:22:59;;;;;;;22.60;17.77;;;;;;;8.89;100.00;60274.75;6271550;28;20224;-67
2022/12/31 13:26:26;;;;;;;19.23;16.30;;;;;;;8.90;100.00;60274.75;6256720;28;20243;-67
2022/12/31 13:29:32;;;;;;;19.90;14.30;;;;;;;8.89;100.00;60274.75;6277382;28;20231;-67
2022/12/31 13:32:41;;;;;;;16.97;13.17;;;;;;;8.89;100.00;60274.75;6294833;28;20224;-67
2022/12/31 13:36:06;;;;;;;13.20;11.50;;;;;;;8.86;100.00;60274.75;6294119;28;20244;-70
2022/12/31 13:39:19;;;;;;;19.30;15.03;;;;;;;8.77;100.00;60274.75;6282275;28;20235;-67
2022/12/31 13:42:34;;;;;;;24.00;17.60;;;;;;;8.66;100.00;60274.75;6274970;28;20250;-67
2022/12/31 13:45:42;;;;;;;22.57;19.17;;;;;;;8.59;100.00;60274.75;6260013;28;20711;-66
2022/12/31 13:48:55;;;;;;;24.40;19.97;;;;;;;8.45;100.00;60274.75;6293734;28;20245;-66
2022/12/31 13:52:20;;;;;;;21.57;18.93;;;;;;;8.30;100.00;60274.75;6293767;28;20234;-66
2022/12/31 13:55:30;;;;;;;24.77;19.20;;;;;;;8.19;100.00;60274.75;6281591;28;20238;-67
2022/12/31 13:58:55;;;;;;;21.07;18.10;;;;;;;8.11;100.00;60274.75;6289334;28;20227;-67
2022/12/31 14:02:03;;;;;;;25.10;19.57;;;;;;;8.02;100.00;60274.75;6292346;28;20234;-66
2022/12/31 14:05:17;;;;;;;21.33;17.43;;;;;;;7.97;100.00;60274.75;6279843;28;20223;-66
2022/12/31 14:08:19;;;;;;;23.23;18.77;;;;;;;7.87;100.00;60274.75;6292197;28;20227;-67
2022/12/31 14:11:51;;;;;;;23.73;19.13;;;;;;;7.87;100.00;78795.28;6293700;28;20233;-67
2022/12/31 14:15:12;;;;;;;19.70;16.80;;;;;;;7.66;100.00;60274.75;6275610;28;20230;-66
2022/12/31 14:18:34;;;;;;;19.13;16.53;;;;;;;7.58;100.00;60274.75;6273882;28;20612;-66
2022/12/31 14:21:58;;;;;;;22.47;18.23;;;;;;;7.47;100.00;60274.75;6291558;28;20722;-68
2022/12/31 14:25:04;;;;;;;24.40;19.60;;;;;;;-144.22;100.00;60274.75;6292708;28;20622;-66
2022/12/31 14:28:18;;;;;;;27.03;20.90;;;;;;;-144.22;100.00;60274.75;6292574;28;20241;-67
2022/12/31 14:31:26;;;;;;;23.47;19.00;;;;;;;-144.22;100.00;60274.75;6299452;28;20262;-67
2022/12/31 14:34:55;;;;;;;29.40;22.53;;;;;;;-144.22;100.00;60274.75;6276452;28;20240;-66
2022/12/31 14:38:27;;;;;;;23.97;19.33;;;;;;;-144.22;100.00;60274.75;6292250;28;20308;-67
2022/12/31 14:41:59;;;;;;;25.70;20.87;;;;;;;-144.22;100.00;60274.75;6292395;28;20222;-66
2022/12/31 14:45:38;;;;;;;25.07;20.33;;;;;;;7.09;100.00;103558.78;6291112;28;20237;-67